sensor_id;sensor_type;location;lat;lon;timestamp;pressure;altitude;pressure_sealevel;temperature;humidity
7662;BME280;30314;48.184;11.510;2023-12-29T00:01:32;96084.34;;;7.32;100.00
7662;BME280;30314;48.184;11.510;2023-12-29T00:03:58;96056.97;;;7.13;100.00
7662;BME280;30314;48.184;11.510;2023-12-29T00:06:25;96075.91;;;7.25;100.00
7662;BME280;30314;48.184;11.510;2023-12-29T00:08:52;96067.47;;;7.08;100.00
7662;BME280;30314;48.184;11.510;2023-12-29T00:11:21;96078.22;;;7.11;100.00
7662;BME280;30314;48.184;11.510;2023-12-29T00:13:48;96059.09;;;7.26;100.00
7662;BME280;30314;48.184;11.510;2023-12-29T00:16:15;96070.66;;;7.30;100.00
7662;BME280;30314;48.184;11.510;2023-12-29T00:18:41;96024.88;;;7.00;100.00
7662;BME280;30314;48.184;11.510;2023-12-29T00:21:08;96050.09;;;7.07;100.00
7662;BME280;30314;48.184;11.510;2023-12-29T00:23:35;96044.81;;;6.91;100.00
7662;BME280;30314;48.184;11.510;2023-12-29T00:26:01;96071.38;;;7.05;100.00
7662;BME280;30314;48.184;11.510;2023-12-29T00:28:28;96034.53;;;6.84;100.00
7662;BME280;30314;48.184;11.510;2023-12-29T00:30:55;96020.59;;;6.73;100.00
7662;BME280;30314;48.184;11.510;2023-12-29T00:33:29;96055.31;;;6.91;100.00
7662;BME280;30314;48.184;11.510;2023-12-29T00:35:57;96004.72;;;6.53;100.00
7662;BME280;30314;48.184;11.510;2023-12-29T00:38:27;96045.03;;;6.79;100.00
7662;BME280;30314;48.184;11.510;2023-12-29T00:40:57;96018.94;;;6.62;100.00
7662;BME280;30314;48.184;11.510;2023-12-29T00:43:23;95994.72;;;6.44;100.00
7662;BME280;30314;48.184;11.510;2023-12-29T00:45:50;96019.22;;;6.71;100.00
7662;BME280;30314;48.184;11.510;2023-12-29T00:48:17;96044.28;;;6.89;100.00
7662;BME280;30314;48.184;11.510;2023-12-29T00:50:45;96015.84;;;6.70;100.00
7662;BME280;30314;48.184;11.510;2023-12-29T00:53:11;96003.75;;;6.69;100.00
7662;BME280;30314;48.184;11.510;2023-12-29T00:55:38;96014.34;;;6.85;100.00
7662;BME280;30314;48.184;11.510;2023-12-29T00:58:04;96011.97;;;6.78;100.00
7662;BME280;30314;48.184;11.510;2023-12-29T01:00:32;96019.59;;;6.85;100.00
7662;BME280;30314;48.184;11.510;2023-12-29T01:03:00;96013.00;;;6.82;100.00
7662;BME280;30314;48.184;11.510;2023-12-29T01:05:26;96022.22;;;6.90;100.00
7662;BME280;30314;48.184;11.510;2023-12-29T01:07:54;96029.34;;;6.95;100.00
7662;BME280;30314;48.184;11.510;2023-12-29T01:10:21;95997.97;;;6.67;100.00
7662;BME280;30314;48.184;11.510;2023-12-29T01:12:48;96020.06;;;6.71;100.00
7662;BME280;30314;48.184;11.510;2023-12-29T01:15:15;96013.94;;;6.60;100.00
7662;BME280;30314;48.184;11.510;2023-12-29T01:17:41;96000.00;;;6.49;100.00
7662;BME280;30314;48.184;11.510;2023-12-29T01:20:08;96018.88;;;6.52;100.00
7662;BME280;30314;48.184;11.510;2023-12-29T01:22:35;96022.78;;;6.39;100.00
7662;BME280;30314;48.184;11.510;2023-12-29T01:25:02;96040.63;;;6.42;100.00
7662;BME280;30314;48.184;11.510;2023-12-29T01:27:29;96040.06;;;6.34;100.00
7662;BME280;30314;48.184;11.510;2023-12-29T01:29:56;95992.94;;;6.07;100.00
7662;BME280;30314;48.184;11.510;2023-12-29T01:32:22;95997.44;;;6.17;100.00
7662;BME280;30314;48.184;11.510;2023-12-29T01:34:49;96034.91;;;6.50;100.00
7662;BME280;30314;48.184;11.510;2023-12-29T01:37:17;96031.53;;;6.60;100.00
7662;BME280;30314;48.184;11.510;2023-12-29T01:39:43;96034.44;;;6.69;100.00
7662;BME280;30314;48.184;11.510;2023-12-29T01:42:11;96001.31;;;6.52;100.00
7662;BME280;30314;48.184;11.510;2023-12-29T01:44:38;96036.59;;;6.72;100.00
7662;BME280;30314;48.184;11.510;2023-12-29T01:47:11;96011.88;;;6.68;100.00
7662;BME280;30314;48.184;11.510;2023-12-29T01:49:39;96039.25;;;6.82;100.00
7662;BME280;30314;48.184;11.510;2023-12-29T01:52:07;96030.34;;;6.78;100.00
7662;BME280;30314;48.184;11.510;2023-12-29T01:54:36;96027.94;;;6.76;100.00
7662;BME280;30314;48.184;11.510;2023-12-29T01:57:06;95976.59;;;6.43;100.00
7662;BME280;30314;48.184;11.510;2023-12-29T01:59:35;96020.06;;;6.71;100.00
7662;BME280;30314;48.184;11.510;2023-12-29T02:02:02;95994.22;;;6.53;100.00
7662;BME280;30314;48.184;11.510;2023-12-29T02:04:30;96036.84;;;6.70;100.00
7662;BME280;30314;48.184;11.510;2023-12-29T02:06:57;95990.78;;;6.42;100.00
7662;BME280;30314;48.184;11.510;2023-12-29T02:09:24;96013.16;;;6.60;100.00
7662;BME280;30314;48.184;11.510;2023-12-29T02:11:51;96000.78;;;6.50;100.00
7662;BME280;30314;48.184;11.510;2023-12-29T02:14:19;96013.09;;;6.49;100.00
7662;BME280;30314;48.184;11.510;2023-12-29T02:17:09;96020.44;;;6.47;100.00
7662;BME280;30314;48.184;11.510;2023-12-29T02:22:07;95991.69;;;6.15;100.00
7662;BME280;30314;48.184;11.510;2023-12-29T02:24:35;96001.41;;;6.19;100.00
7662;BME280;30314;48.184;11.510;2023-12-29T02:27:15;95982.47;;;6.07;100.00
7662;BME280;30314;48.184;11.510;2023-12-29T02:29:50;95997.69;;;6.10;100.00
7662;BME280;30314;48.184;11.510;2023-12-29T02:32:21;95967.69;;;5.90;100.00
7662;BME280;30314;48.184;11.510;2023-12-29T02:34:50;95993.69;;;6.02;100.00
7662;BME280;30314;48.184;11.510;2023-12-29T02:37:19;95973.47;;;5.98;100.00
7662;BME280;30314;48.184;11.510;2023-12-29T02:39:46;95969.31;;;6.02;100.00
7662;BME280;30314;48.184;11.510;2023-12-29T02:42:12;95944.03;;;5.85;100.00
7662;BME280;30314;48.184;11.510;2023-12-29T02:44:39;95935.13;;;5.86;100.00
7662;BME280;30314;48.184;11.510;2023-12-29T02:47:06;95969.38;;;6.12;100.00
7662;BME280;30314;48.184;11.510;2023-12-29T02:49:33;95941.78;;;5.99;100.00
7662;BME280;30314;48.184;11.510;2023-12-29T02:51:59;95968.66;;;6.22;100.00
7662;BME280;30314;48.184;11.510;2023-12-29T02:54:26;95959.50;;;6.30;100.00
7662;BME280;30314;48.184;11.510;2023-12-29T02:56:52;95960.81;;;6.32;100.00
7662;BME280;30314;48.184;11.510;2023-12-29T02:59:19;95964.25;;;6.33;100.00
7662;BME280;30314;48.184;11.510;2023-12-29T03:01:45;95973.50;;;6.51;100.00
7662;BME280;30314;48.184;11.510;2023-12-29T03:04:13;95945.88;;;6.38;100.00
7662;BME280;30314;48.184;11.510;2023-12-29T03:06:40;95918.84;;;6.32;98.84
7662;BME280;30314;48.184;11.510;2023-12-29T03:09:08;95950.72;;;6.62;98.29
7662;BME280;30314;48.184;11.510;2023-12-29T03:11:34;95950.47;;;6.63;97.21
7662;BME280;30314;48.184;11.510;2023-12-29T03:14:01;95949.69;;;6.68;97.22
7662;BME280;30314;48.184;11.510;2023-12-29T03:16:27;95951.75;;;6.66;98.04
7662;BME280;30314;48.184;11.510;2023-12-29T03:18:54;95954.09;;;6.57;97.54
7662;BME280;30314;48.184;11.510;2023-12-29T03:21:20;95940.94;;;6.42;99.91
7662;BME280;30314;48.184;11.510;2023-12-29T03:23:47;95948.50;;;6.38;100.00
7662;BME280;30314;48.184;11.510;2023-12-29T03:26:14;95966.41;;;6.46;99.75
7662;BME280;30314;48.184;11.510;2023-12-29T03:28:42;95948.25;;;6.34;99.29
7662;BME280;30314;48.184;11.510;2023-12-29T03:31:08;95949.03;;;6.30;99.73
7662;BME280;30314;48.184;11.510;2023-12-29T03:33:35;95957.41;;;6.32;100.00
7662;BME280;30314;48.184;11.510;2023-12-29T03:36:02;95949.50;;;6.22;100.00
7662;BME280;30314;48.184;11.510;2023-12-29T03:38:28;95952.69;;;6.29;99.60
7662;BME280;30314;48.184;11.510;2023-12-29T03:40:55;95944.78;;;6.24;98.41
7662;BME280;30314;48.184;11.510;2023-12-29T03:43:21;95948.16;;;6.19;98.32
7662;BME280;30314;48.184;11.510;2023-12-29T03:45:48;95957.38;;;6.27;95.39
7662;BME280;30314;48.184;11.510;2023-12-29T03:48:14;95872.72;;;5.78;95.90
7662;BME280;30314;48.184;11.510;2023-12-29T03:50:41;95955.81;;;6.26;95.93
7662;BME280;30314;48.184;11.510;2023-12-29T03:53:08;95899.22;;;5.82;96.22
7662;BME280;30314;48.184;11.510;2023-12-29T03:55:35;95880.00;;;5.66;96.08
7662;BME280;30314;48.184;11.510;2023-12-29T03:58:02;95951.28;;;6.11;96.40
7662;BME280;30314;48.184;11.510;2023-12-29T04:00:29;95951.53;;;6.09;96.79
7662;BME280;30314;48.184;11.510;2023-12-29T04:02:56;95951.00;;;6.12;97.46
7662;BME280;30314;48.184;11.510;2023-12-29T04:05:22;95946.56;;;6.13;99.06
7662;BME280;30314;48.184;11.510;2023-12-29T04:07:49;95953.16;;;6.20;98.29
7662;BME280;30314;48.184;11.510;2023-12-29T04:10:15;95953.69;;;6.17;97.18
7662;BME280;30314;48.184;11.510;2023-12-29T04:12:42;95949.50;;;6.22;97.12
7662;BME280;30314;48.184;11.510;2023-12-29T04:15:09;95937.94;;;6.23;95.69
7662;BME280;30314;48.184;11.510;2023-12-29T04:17:36;95948.22;;;6.29;95.99
7662;BME280;30314;48.184;11.510;2023-12-29T04:20:03;95948.50;;;6.33;96.29
7662;BME280;30314;48.184;11.510;2023-12-29T04:22:30;95947.97;;;6.36;96.54
7662;BME280;30314;48.184;11.510;2023-12-29T04:24:56;95951.66;;;6.35;96.14
7662;BME280;30314;48.184;11.510;2023-12-29T04:27:23;95951.13;;;6.38;94.81
7662;BME280;30314;48.184;11.510;2023-12-29T04:29:50;95941.16;;;6.40;94.69
7662;BME280;30314;48.184;11.510;2023-12-29T04:32:16;95942.25;;;6.44;94.97
7662;BME280;30314;48.184;11.510;2023-12-29T04:34:43;95943.84;;;6.51;94.25
7662;BME280;30314;48.184;11.510;2023-12-29T04:37:10;95939.16;;;6.63;92.49
7662;BME280;30314;48.184;11.510;2023-12-29T04:39:38;95943.13;;;6.71;90.44
7662;BME280;30314;48.184;11.510;2023-12-29T04:42:05;95937.09;;;6.70;91.19
7662;BME280;30314;48.184;11.510;2023-12-29T04:44:32;95935.31;;;6.76;89.85
7662;BME280;30314;48.184;11.510;2023-12-29T04:46:58;95946.84;;;6.80;91.40
7662;BME280;30314;48.184;11.510;2023-12-29T04:49:25;95937.16;;;6.86;90.00
7662;BME280;30314;48.184;11.510;2023-12-29T04:51:52;95937.69;;;6.93;89.53
7662;BME280;30314;48.184;11.510;2023-12-29T04:54:19;95936.66;;;7.04;88.20
7662;BME280;30314;48.184;11.510;2023-12-29T04:56:45;95931.41;;;7.15;87.44
7662;BME280;30314;48.184;11.510;2023-12-29T04:59:12;95936.66;;;7.20;87.37
7662;BME280;30314;48.184;11.510;2023-12-29T05:01:38;95954.03;;;7.26;87.01
7662;BME280;30314;48.184;11.510;2023-12-29T05:04:05;95942.47;;;7.27;87.04
7662;BME280;30314;48.184;11.510;2023-12-29T05:06:32;95941.94;;;7.41;84.63
7662;BME280;30314;48.184;11.510;2023-12-29T05:08:59;95940.38;;;7.35;85.91
7662;BME280;30314;48.184;11.510;2023-12-29T05:11:25;95928.28;;;7.44;85.00
7662;BME280;30314;48.184;11.510;2023-12-29T05:13:52;95936.19;;;7.49;85.18
7662;BME280;30314;48.184;11.510;2023-12-29T05:16:18;95937.75;;;7.40;86.73
7662;BME280;30314;48.184;11.510;2023-12-29T05:18:45;95931.44;;;7.51;86.54
7662;BME280;30314;48.184;11.510;2023-12-29T05:21:16;95933.03;;;7.47;86.81
7662;BME280;30314;48.184;11.510;2023-12-29T05:23:46;95937.22;;;7.53;87.19
7662;BME280;30314;48.184;11.510;2023-12-29T05:26:14;95926.97;;;7.57;88.12
7662;BME280;30314;48.184;11.510;2023-12-29T05:28:41;95939.31;;;7.56;88.05
7662;BME280;30314;48.184;11.510;2023-12-29T05:31:08;95947.72;;;7.69;86.38
7662;BME280;30314;48.184;11.510;2023-12-29T05:33:35;95942.19;;;7.75;87.50
7662;BME280;30314;48.184;11.510;2023-12-29T05:36:07;95942.72;;;7.78;86.66
7662;BME280;30314;48.184;11.510;2023-12-29T05:38:35;95947.19;;;7.77;87.22
7662;BME280;30314;48.184;11.510;2023-12-29T05:41:02;95951.66;;;7.77;87.59
7662;BME280;30314;48.184;11.510;2023-12-29T05:43:31;95948.75;;;7.73;87.78
7662;BME280;30314;48.184;11.510;2023-12-29T05:45:59;95953.00;;;7.74;87.23
7662;BME280;30314;48.184;11.510;2023-12-29T05:48:25;95954.53;;;7.85;87.05
7662;BME280;30314;48.184;11.510;2023-12-29T05:50:52;95952.44;;;7.77;88.16
7662;BME280;30314;48.184;11.510;2023-12-29T05:53:19;95945.59;;;7.92;84.85
7662;BME280;30314;48.184;11.510;2023-12-29T05:55:46;95952.13;;;8.04;85.48
7662;BME280;30314;48.184;11.510;2023-12-29T05:58:13;95945.81;;;8.06;84.44
7662;BME280;30314;48.184;11.510;2023-12-29T06:00:39;95951.34;;;8.09;82.87
7662;BME280;30314;48.184;11.510;2023-12-29T06:03:06;95947.69;;;8.00;85.33
7662;BME280;30314;48.184;11.510;2023-12-29T06:05:33;95962.41;;;8.06;83.58
7662;BME280;30314;48.184;11.510;2023-12-29T06:08:00;95960.28;;;7.98;84.48
7662;BME280;30314;48.184;11.510;2023-12-29T06:10:27;95959.22;;;8.09;83.60
7662;BME280;30314;48.184;11.510;2023-12-29T06:12:53;95964.22;;;8.16;82.47
7662;BME280;30314;48.184;11.510;2023-12-29T06:15:20;95958.19;;;8.05;83.45
7662;BME280;30314;48.184;11.510;2023-12-29T06:17:47;95950.53;;;8.14;82.84
7662;BME280;30314;48.184;11.510;2023-12-29T06:20:14;95950.25;;;8.21;81.52
7662;BME280;30314;48.184;11.510;2023-12-29T06:22:41;95957.13;;;8.11;83.77
7662;BME280;30314;48.184;11.510;2023-12-29T06:25:11;95959.22;;;8.09;82.64
7662;BME280;30314;48.184;11.510;2023-12-29T06:27:39;95968.41;;;8.22;81.51
7662;BME280;30314;48.184;11.510;2023-12-29T06:30:07;95958.72;;;8.02;82.23
7662;BME280;30314;48.184;11.510;2023-12-29T06:32:34;95967.91;;;8.04;83.02
7662;BME280;30314;48.184;11.510;2023-12-29T06:35:01;95960.25;;;8.18;81.52
7662;BME280;30314;48.184;11.510;2023-12-29T06:37:28;95965.78;;;8.22;80.93
7662;BME280;30314;48.184;11.510;2023-12-29T06:39:55;95957.41;;;7.99;83.34
7662;BME280;30314;48.184;11.510;2023-12-29T06:42:21;95971.28;;;8.26;79.51
7662;BME280;30314;48.184;11.510;2023-12-29T06:44:49;95964.50;;;8.14;80.44
7662;BME280;30314;48.184;11.510;2023-12-29T06:47:15;95970.28;;;8.16;81.66
7662;BME280;30314;48.184;11.510;2023-12-29T06:49:42;95961.38;;;8.02;82.17
7662;BME280;30314;48.184;11.510;2023-12-29T06:52:09;95961.34;;;8.07;81.37
7662;BME280;30314;48.184;11.510;2023-12-29T06:54:35;95965.53;;;8.08;81.27
7662;BME280;30314;48.184;11.510;2023-12-29T06:57:03;95974.97;;;8.25;80.44
7662;BME280;30314;48.184;11.510;2023-12-29T06:59:29;95975.50;;;8.27;80.77
7662;BME280;30314;48.184;11.510;2023-12-29T07:01:56;95977.09;;;8.28;81.20
7662;BME280;30314;48.184;11.510;2023-12-29T07:04:22;95967.63;;;8.22;81.88
7662;BME280;30314;48.184;11.510;2023-12-29T07:06:49;95977.38;;;8.21;83.02
7662;BME280;30314;48.184;11.510;2023-12-29T07:09:16;95978.13;;;8.22;83.28
7662;BME280;30314;48.184;11.510;2023-12-29T07:11:47;95970.25;;;8.27;83.35
7662;BME280;30314;48.184;11.510;2023-12-29T07:14:15;95966.84;;;8.21;86.36
7662;BME280;30314;48.184;11.510;2023-12-29T07:16:42;95976.81;;;8.24;88.71
7662;BME280;30314;48.184;11.510;2023-12-29T07:19:08;95965.00;;;8.16;89.81
7662;BME280;30314;48.184;11.510;2023-12-29T07:21:35;95978.13;;;8.32;90.10
7662;BME280;30314;48.184;11.510;2023-12-29T07:24:02;95978.06;;;8.48;88.88
7662;BME280;30314;48.184;11.510;2023-12-29T07:26:28;95964.41;;;8.40;90.89
7662;BME280;30314;48.184;11.510;2023-12-29T07:28:55;95987.06;;;8.31;94.27
7662;BME280;30314;48.184;11.510;2023-12-29T07:31:21;95987.63;;;8.28;95.64
7662;BME280;30314;48.184;11.510;2023-12-29T07:33:49;95979.72;;;8.28;97.26
7662;BME280;30314;48.184;11.510;2023-12-29T07:36:16;95980.22;;;8.35;97.48
7662;BME280;30314;48.184;11.510;2023-12-29T07:38:44;95984.97;;;8.33;99.30
7662;BME280;30314;48.184;11.510;2023-12-29T07:41:10;95981.25;;;8.34;99.63
7662;BME280;30314;48.184;11.510;2023-12-29T07:43:37;95984.91;;;8.54;99.47
7662;BME280;30314;48.184;11.510;2023-12-29T07:46:03;95991.50;;;8.41;100.00
7662;BME280;30314;48.184;11.510;2023-12-29T07:48:30;95990.19;;;8.43;100.00
7662;BME280;30314;48.184;11.510;2023-12-29T07:50:58;95981.00;;;8.30;100.00
7662;BME280;30314;48.184;11.510;2023-12-29T07:53:30;95963.09;;;8.32;100.00
7662;BME280;30314;48.184;11.510;2023-12-29T07:55:56;95973.63;;;8.32;100.00
7662;BME280;30314;48.184;11.510;2023-12-29T07:58:23;95978.09;;;8.37;100.00
7662;BME280;30314;48.184;11.510;2023-12-29T08:00:49;95980.97;;;8.41;100.00
7662;BME280;30314;48.184;11.510;2023-12-29T08:03:16;95988.63;;;8.42;100.00
7662;BME280;30314;48.184;11.510;2023-12-29T08:05:43;95995.22;;;8.29;100.00
7662;BME280;30314;48.184;11.510;2023-12-29T08:08:10;96003.13;;;8.29;100.00
7662;BME280;30314;48.184;11.510;2023-12-29T08:10:37;95996.03;;;8.30;100.00
7662;BME280;30314;48.184;11.510;2023-12-29T08:13:03;96003.91;;;8.30;100.00
7662;BME280;30314;48.184;11.510;2023-12-29T08:15:30;96012.59;;;8.36;100.00
7662;BME280;30314;48.184;11.510;2023-12-29T08:17:57;96013.09;;;8.38;100.00
7662;BME280;30314;48.184;11.510;2023-12-29T08:20:24;96006.56;;;8.30;100.00
7662;BME280;30314;48.184;11.510;2023-12-29T08:22:50;96009.44;;;8.34;100.00
7662;BME280;30314;48.184;11.510;2023-12-29T08:25:17;96004.19;;;8.23;100.00
7662;BME280;30314;48.184;11.510;2023-12-29T08:27:44;96009.19;;;8.25;100.00
7662;BME280;30314;48.184;11.510;2023-12-29T08:30:11;96010.50;;;8.27;100.00
7662;BME280;30314;48.184;11.510;2023-12-29T08:32:38;96011.03;;;8.14;100.00
7662;BME280;30314;48.184;11.510;2023-12-29T08:35:05;96011.00;;;8.35;100.00
7662;BME280;30314;48.184;11.510;2023-12-29T08:37:33;96016.50;;;8.43;100.00
7662;BME280;30314;48.184;11.510;2023-12-29T08:39:59;96014.69;;;8.39;100.00
7662;BME280;30314;48.184;11.510;2023-12-29T08:42:28;96006.00;;;8.33;100.00
7662;BME280;30314;48.184;11.510;2023-12-29T08:44:54;96019.94;;;8.49;100.00
7662;BME280;30314;48.184;11.510;2023-12-29T08:47:21;96008.63;;;8.43;100.00
7662;BME280;30314;48.184;11.510;2023-12-29T08:49:48;96008.56;;;8.59;100.00
7662;BME280;30314;48.184;11.510;2023-12-29T08:52:15;96004.63;;;8.56;100.00
7662;BME280;30314;48.184;11.510;2023-12-29T08:54:42;95994.38;;;8.50;100.00
7662;BME280;30314;48.184;11.510;2023-12-29T08:57:08;95993.88;;;8.42;100.00
7662;BME280;30314;48.184;11.510;2023-12-29T08:59:36;96001.78;;;8.37;100.00
7662;BME280;30314;48.184;11.510;2023-12-29T09:02:03;96005.97;;;8.38;100.00
7662;BME280;30314;48.184;11.510;2023-12-29T09:04:30;96013.38;;;8.41;100.00
7662;BME280;30314;48.184;11.510;2023-12-29T09:06:56;96016.50;;;8.54;100.00
7662;BME280;30314;48.184;11.510;2023-12-29T09:09:23;96019.63;;;8.56;100.00
7662;BME280;30314;48.184;11.510;2023-12-29T09:11:50;96014.63;;;8.54;100.00
7662;BME280;30314;48.184;11.510;2023-12-29T09:14:16;96013.22;;;8.83;100.00
7662;BME280;30314;48.184;11.510;2023-12-29T09:16:43;96021.09;;;8.93;100.00
7662;BME280;30314;48.184;11.510;2023-12-29T09:19:12;96018.97;;;8.95;100.00
7662;BME280;30314;48.184;11.510;2023-12-29T09:21:56;96019.72;;;9.01;100.00
7662;BME280;30314;48.184;11.510;2023-12-29T09:24:23;96030.53;;;8.99;100.00
7662;BME280;30314;48.184;11.510;2023-12-29T09:26:49;96019.66;;;9.11;100.00
7662;BME280;30314;48.184;11.510;2023-12-29T09:29:17;96025.22;;;9.05;100.00
7662;BME280;30314;48.184;11.510;2023-12-29T09:31:44;96027.09;;;8.99;100.00
7662;BME280;30314;48.184;11.510;2023-12-29T09:34:10;96024.69;;;9.08;100.00
7662;BME280;30314;48.184;11.510;2023-12-29T09:36:37;96008.38;;;9.00;100.00
7662;BME280;30314;48.184;11.510;2023-12-29T09:39:04;96022.59;;;9.10;100.00
7662;BME280;30314;48.184;11.510;2023-12-29T09:41:31;96016.53;;;9.04;100.00
7662;BME280;30314;48.184;11.510;2023-12-29T09:44:01;96022.28;;;9.22;100.00
7662;BME280;30314;48.184;11.510;2023-12-29T09:46:29;96022.47;;;9.30;100.00
7662;BME280;30314;48.184;11.510;2023-12-29T09:49:02;96015.16;;;9.22;100.00
7662;BME280;30314;48.184;11.510;2023-12-29T09:51:31;96019.59;;;9.32;100.00
7662;BME280;30314;48.184;11.510;2023-12-29T09:53:58;96016.13;;;9.37;100.00
7662;BME280;30314;48.184;11.510;2023-12-29T09:56:25;96016.66;;;9.39;100.00
7662;BME280;30314;48.184;11.510;2023-12-29T09:58:52;96016.06;;;9.47;100.00
7662;BME280;30314;48.184;11.510;2023-12-29T10:01:21;96013.91;;;9.54;100.00
7662;BME280;30314;48.184;11.510;2023-12-29T10:03:48;95998.06;;;9.54;100.00
7662;BME280;30314;48.184;11.510;2023-12-29T10:06:20;95996.69;;;9.67;100.00
7662;BME280;30314;48.184;11.510;2023-12-29T10:08:50;95993.50;;;9.70;100.00
7662;BME280;30314;48.184;11.510;2023-12-29T10:11:18;95989.78;;;9.71;100.00
7662;BME280;30314;48.184;11.510;2023-12-29T10:13:49;95991.63;;;9.71;100.00
7662;BME280;30314;48.184;11.510;2023-12-29T10:16:35;95992.38;;;9.77;100.00
7662;BME280;30314;48.184;11.510;2023-12-29T10:21:56;95976.13;;;9.64;100.00
7662;BME280;30314;48.184;11.510;2023-12-29T10:24:25;95965.41;;;9.85;100.00
7662;BME280;30314;48.184;11.510;2023-12-29T10:26:52;95971.50;;;9.80;100.00
7662;BME280;30314;48.184;11.510;2023-12-29T10:29:21;95952.53;;;9.78;100.00
7662;BME280;30314;48.184;11.510;2023-12-29T10:31:48;95954.16;;;9.74;100.00
7662;BME280;30314;48.184;11.510;2023-12-29T10:36:56;95936.16;;;9.81;100.00
7662;BME280;30314;48.184;11.510;2023-12-29T10:39:23;95949.84;;;9.83;100.00
7662;BME280;30314;48.184;11.510;2023-12-29T10:42:06;95930.84;;;9.86;100.00
7662;BME280;30314;48.184;11.510;2023-12-29T10:44:33;95944.69;;;9.73;100.00
7662;BME280;30314;48.184;11.510;2023-12-29T10:47:11;95944.56;;;9.83;100.00
7662;BME280;30314;48.184;11.510;2023-12-29T10:49:39;95941.50;;;9.76;100.00
7662;BME280;30314;48.184;11.510;2023-12-29T10:52:13;95929.22;;;9.91;100.00
7662;BME280;30314;48.184;11.510;2023-12-29T10:54:44;95931.13;;;9.85;100.00
7662;BME280;30314;48.184;11.510;2023-12-29T10:57:12;95932.91;;;9.90;100.00
7662;BME280;30314;48.184;11.510;2023-12-29T10:59:39;95932.13;;;9.89;100.00
7662;BME280;30314;48.184;11.510;2023-12-29T11:02:06;95922.13;;;9.86;100.00
7662;BME280;30314;48.184;11.510;2023-12-29T11:04:35;95926.00;;;9.94;100.00
7662;BME280;30314;48.184;11.510;2023-12-29T11:07:02;95919.00;;;10.08;100.00
7662;BME280;30314;48.184;11.510;2023-12-29T11:09:32;95924.91;;;10.00;100.00
7662;BME280;30314;48.184;11.510;2023-12-29T11:12:02;95924.84;;;10.05;100.00
7662;BME280;30314;48.184;11.510;2023-12-29T11:14:30;95903.84;;;9.95;100.00
7662;BME280;30314;48.184;11.510;2023-12-29T11:16:57;95925.66;;;10.06;100.00
7662;BME280;30314;48.184;11.510;2023-12-29T11:19:27;95926.25;;;9.97;100.00
7662;BME280;30314;48.184;11.510;2023-12-29T11:21:55;95923.84;;;10.01;100.00
7662;BME280;30314;48.184;11.510;2023-12-29T11:24:23;95921.47;;;9.99;100.00
7662;BME280;30314;48.184;11.510;2023-12-29T11:27:07;95909.84;;;10.00;100.00
7662;BME280;30314;48.184;11.510;2023-12-29T11:29:35;95904.25;;;10.07;100.00
7662;BME280;30314;48.184;11.510;2023-12-29T11:32:04;95914.13;;;9.96;100.00
7662;BME280;30314;48.184;11.510;2023-12-29T11:34:41;95911.09;;;10.08;100.00
7662;BME280;30314;48.184;11.510;2023-12-29T11:40:18;95902.44;;;10.27;100.00
7662;BME280;30314;48.184;11.510;2023-12-29T11:42:47;95899.47;;;10.34;100.00
7662;BME280;30314;48.184;11.510;2023-12-29T11:47:55;95892.50;;;10.19;100.00
7662;BME280;30314;48.184;11.510;2023-12-29T11:50:28;95888.03;;;10.38;100.00
7662;BME280;30314;48.184;11.510;2023-12-29T11:52:55;95892.66;;;10.27;100.00
7662;BME280;30314;48.184;11.510;2023-12-29T11:55:31;95884.00;;;10.22;100.00
7662;BME280;30314;48.184;11.510;2023-12-29T11:57:59;95879.13;;;10.34;100.00
7662;BME280;30314;48.184;11.510;2023-12-29T12:00:46;95883.78;;;10.42;100.00
7662;BME280;30314;48.184;11.510;2023-12-29T12:05:48;95885.16;;;10.59;100.00
7662;BME280;30314;48.184;11.510;2023-12-29T12:08:35;95881.22;;;10.56;100.00
7662;BME280;30314;48.184;11.510;2023-12-29T12:14:02;95872.06;;;10.49;100.00
7662;BME280;30314;48.184;11.510;2023-12-29T12:19:14;95869.34;;;10.35;100.00
7662;BME280;30314;48.184;11.510;2023-12-29T12:21:45;95871.19;;;10.34;100.00
7662;BME280;30314;48.184;11.510;2023-12-29T12:24:14;95873.25;;;10.37;100.00
7662;BME280;30314;48.184;11.510;2023-12-29T12:26:41;95861.47;;;10.54;98.38
7662;BME280;30314;48.184;11.510;2023-12-29T12:29:08;95859.78;;;10.39;100.00
7662;BME280;30314;48.184;11.510;2023-12-29T12:31:35;95864.84;;;10.35;100.00
7662;BME280;30314;48.184;11.510;2023-12-29T12:34:02;95848.16;;;10.40;98.99
7662;BME280;30314;48.184;11.510;2023-12-29T12:36:29;95859.88;;;10.34;100.00
7662;BME280;30314;48.184;11.510;2023-12-29T12:38:57;95855.66;;;10.33;99.68
7662;BME280;30314;48.184;11.510;2023-12-29T12:41:25;95860.59;;;10.39;98.46
7662;BME280;30314;48.184;11.510;2023-12-29T12:44:12;95861.38;;;10.40;98.42
7662;BME280;30314;48.184;11.510;2023-12-29T12:46:49;95864.72;;;10.46;96.58
7662;BME280;30314;48.184;11.510;2023-12-29T12:49:19;95876.22;;;10.36;98.51
7662;BME280;30314;48.184;11.510;2023-12-29T12:51:47;95875.19;;;10.32;98.87
7662;BME280;30314;48.184;11.510;2023-12-29T12:54:17;95861.84;;;10.23;100.00
7662;BME280;30314;48.184;11.510;2023-12-29T12:56:45;95879.06;;;10.39;96.98
7662;BME280;30314;48.184;11.510;2023-12-29T12:59:13;95867.59;;;10.25;99.55
7662;BME280;30314;48.184;11.510;2023-12-29T13:01:41;95868.25;;;10.17;100.00
7662;BME280;30314;48.184;11.510;2023-12-29T13:04:09;95869.72;;;10.28;98.26
7662;BME280;30314;48.184;11.510;2023-12-29T13:06:40;95872.38;;;10.23;99.71
7662;BME280;30314;48.184;11.510;2023-12-29T13:09:08;95882.59;;;10.29;98.23
7662;BME280;30314;48.184;11.510;2023-12-29T13:11:41;95874.91;;;10.33;96.40
7662;BME280;30314;48.184;11.510;2023-12-29T13:14:07;95873.03;;;10.14;99.66
7662;BME280;30314;48.184;11.510;2023-12-29T13:16:37;95875.81;;;10.23;98.03
7662;BME280;30314;48.184;11.510;2023-12-29T13:19:21;95860.00;;;10.23;98.30
7662;BME280;30314;48.184;11.510;2023-12-29T13:21:54;95869.72;;;10.28;98.33
7662;BME280;30314;48.184;11.510;2023-12-29T13:24:23;95873.97;;;10.24;97.70
7662;BME280;30314;48.184;11.510;2023-12-29T13:27:05;95867.06;;;10.28;96.12
7662;BME280;30314;48.184;11.510;2023-12-29T13:29:36;95872.28;;;10.33;94.46